Capitol Logistics 905

Operating for DHL



EDDK
Cologne Bonn Airport
Cologne, DE
EDDW
Bremen Airport
Bremen, DE

Route Details

Aircraft Information
Group: European Fleet
Types: A30F,A31F,B738
Route Data
Demand: H
Distance: 145nm
Duration: 0h 40m
Recm'd Route: PODI3X PODIP Y867 WRB N850 NIE Z88 VERED VERE3P
Origin Wx: EDDK 270450Z AUTO 27016KT 9999 BKN014 OVC019 14/11 Q1020 TEMPO 4000 RADZ
Dest. Wx: EDDW 270450Z AUTO 27009KT CAVOK 12/09 Q1016 BECMG 27015G25KT
Notes:

Financial History
Total Freight: 395,727lbs
Average Load: 56,532lbs/flt
Fuel Used: 50,080lbs
Avg. Fuel Used: 7,154lbs/flt
Fuel Expense: $14,100
Avg. Fuel Expense: $2,014
Avg. Fuel Cost: $0.29/lbs
Total Gross Income: $807,679
Pilot Pay: $1,663
Total Expenses: $101,176
Total Revenue: $691,557
Average Revenue: $115,382.69